sensor_id;sensor_type;location;lat;lon;timestamp;temperature;humidity
20171;DHT22;10245;51.344;6.620;2023-04-29T00:01:50;11.50;92.30
20171;DHT22;10245;51.344;6.620;2023-04-29T00:04:15;11.50;92.40
20171;DHT22;10245;51.344;6.620;2023-04-29T00:06:39;11.50;92.50
20171;DHT22;10245;51.344;6.620;2023-04-29T00:09:02;11.50;92.40
20171;DHT22;10245;51.344;6.620;2023-04-29T00:11:26;11.40;92.50
20171;DHT22;10245;51.344;6.620;2023-04-29T00:13:49;11.40;92.40
20171;DHT22;10245;51.344;6.620;2023-04-29T00:16:12;11.30;92.40
20171;DHT22;10245;51.344;6.620;2023-04-29T00:18:36;11.20;92.10
20171;DHT22;10245;51.344;6.620;2023-04-29T00:21:01;11.10;92.10
20171;DHT22;10245;51.344;6.620;2023-04-29T00:23:26;11.10;92.10
20171;DHT22;10245;51.344;6.620;2023-04-29T00:25:50;11.00;92.20
20171;DHT22;10245;51.344;6.620;2023-04-29T00:28:14;11.00;92.40
20171;DHT22;10245;51.344;6.620;2023-04-29T00:30:37;11.00;92.50
20171;DHT22;10245;51.344;6.620;2023-04-29T00:33:00;11.00;92.50
20171;DHT22;10245;51.344;6.620;2023-04-29T00:35:24;11.00;92.40
20171;DHT22;10245;51.344;6.620;2023-04-29T00:37:49;11.00;92.60
20171;DHT22;10245;51.344;6.620;2023-04-29T00:40:12;11.00;92.50
20171;DHT22;10245;51.344;6.620;2023-04-29T00:42:38;11.00;92.50
20171;DHT22;10245;51.344;6.620;2023-04-29T00:45:01;11.00;92.60
20171;DHT22;10245;51.344;6.620;2023-04-29T00:47:28;10.90;92.80
20171;DHT22;10245;51.344;6.620;2023-04-29T00:49:52;10.90;92.70
20171;DHT22;10245;51.344;6.620;2023-04-29T00:52:16;10.90;92.80
20171;DHT22;10245;51.344;6.620;2023-04-29T00:54:41;10.90;92.80
20171;DHT22;10245;51.344;6.620;2023-04-29T00:57:04;10.90;92.90
20171;DHT22;10245;51.344;6.620;2023-04-29T00:59:28;10.80;92.80
20171;DHT22;10245;51.344;6.620;2023-04-29T01:01:53;10.80;92.90
20171;DHT22;10245;51.344;6.620;2023-04-29T01:04:16;10.70;93.00
20171;DHT22;10245;51.344;6.620;2023-04-29T01:06:49;10.80;93.10
20171;DHT22;10245;51.344;6.620;2023-04-29T01:09:28;10.70;93.10
20171;DHT22;10245;51.344;6.620;2023-04-29T01:12:07;10.70;93.20
20171;DHT22;10245;51.344;6.620;2023-04-29T01:14:37;10.60;93.00
20171;DHT22;10245;51.344;6.620;2023-04-29T01:17:05;10.50;93.20
20171;DHT22;10245;51.344;6.620;2023-04-29T01:19:39;10.50;93.40
20171;DHT22;10245;51.344;6.620;2023-04-29T01:22:07;10.50;93.20
20171;DHT22;10245;51.344;6.620;2023-04-29T01:24:32;10.50;93.10
20171;DHT22;10245;51.344;6.620;2023-04-29T01:27:01;10.50;93.00
20171;DHT22;10245;51.344;6.620;2023-04-29T01:29:44;10.50;93.00
20171;DHT22;10245;51.344;6.620;2023-04-29T01:32:16;10.50;92.90
20171;DHT22;10245;51.344;6.620;2023-04-29T01:34:48;10.50;93.10
20171;DHT22;10245;51.344;6.620;2023-04-29T01:37:18;10.30;93.10
20171;DHT22;10245;51.344;6.620;2023-04-29T01:39:56;10.20;93.00
20171;DHT22;10245;51.344;6.620;2023-04-29T01:42:32;10.20;93.00
20171;DHT22;10245;51.344;6.620;2023-04-29T01:45:05;10.20;92.90
20171;DHT22;10245;51.344;6.620;2023-04-29T01:47:30;10.20;92.80
20171;DHT22;10245;51.344;6.620;2023-04-29T01:49:54;10.20;92.70
20171;DHT22;10245;51.344;6.620;2023-04-29T01:52:18;10.20;92.60
20171;DHT22;10245;51.344;6.620;2023-04-29T01:54:51;10.10;92.50
20171;DHT22;10245;51.344;6.620;2023-04-29T01:57:15;10.10;92.40
20171;DHT22;10245;51.344;6.620;2023-04-29T02:00:17;10.10;92.20
20171;DHT22;10245;51.344;6.620;2023-04-29T02:02:45;10.10;92.00
20171;DHT22;10245;51.344;6.620;2023-04-29T02:05:20;10.10;92.20
20171;DHT22;10245;51.344;6.620;2023-04-29T02:07:50;10.10;91.90
20171;DHT22;10245;51.344;6.620;2023-04-29T02:10:15;10.00;92.10
20171;DHT22;10245;51.344;6.620;2023-04-29T02:12:40;10.00;91.90
20171;DHT22;10245;51.344;6.620;2023-04-29T02:15:05;10.10;92.00
20171;DHT22;10245;51.344;6.620;2023-04-29T02:17:32;10.10;92.20
20171;DHT22;10245;51.344;6.620;2023-04-29T02:19:55;10.00;92.30
20171;DHT22;10245;51.344;6.620;2023-04-29T02:22:19;9.90;92.60
20171;DHT22;10245;51.344;6.620;2023-04-29T02:24:42;9.90;92.90
20171;DHT22;10245;51.344;6.620;2023-04-29T02:27:07;9.80;93.10
20171;DHT22;10245;51.344;6.620;2023-04-29T02:29:31;9.90;93.20
20171;DHT22;10245;51.344;6.620;2023-04-29T02:31:54;9.90;93.40
20171;DHT22;10245;51.344;6.620;2023-04-29T02:34:17;9.90;93.50
20171;DHT22;10245;51.344;6.620;2023-04-29T02:36:41;9.90;93.50
20171;DHT22;10245;51.344;6.620;2023-04-29T02:39:04;9.90;93.50
20171;DHT22;10245;51.344;6.620;2023-04-29T02:41:27;9.80;93.60
20171;DHT22;10245;51.344;6.620;2023-04-29T02:43:52;9.90;93.60
20171;DHT22;10245;51.344;6.620;2023-04-29T02:46:15;9.80;93.60
20171;DHT22;10245;51.344;6.620;2023-04-29T02:48:39;9.70;93.70
20171;DHT22;10245;51.344;6.620;2023-04-29T02:51:03;9.80;93.70
20171;DHT22;10245;51.344;6.620;2023-04-29T02:53:26;9.80;93.90
20171;DHT22;10245;51.344;6.620;2023-04-29T02:55:49;9.70;93.90
20171;DHT22;10245;51.344;6.620;2023-04-29T02:58:13;9.70;94.00
20171;DHT22;10245;51.344;6.620;2023-04-29T03:00:39;9.70;94.00
20171;DHT22;10245;51.344;6.620;2023-04-29T03:03:03;9.80;94.00
20171;DHT22;10245;51.344;6.620;2023-04-29T03:05:26;9.80;94.00
20171;DHT22;10245;51.344;6.620;2023-04-29T03:07:50;9.70;94.10
20171;DHT22;10245;51.344;6.620;2023-04-29T03:10:13;9.60;94.10
20171;DHT22;10245;51.344;6.620;2023-04-29T03:12:36;9.80;94.20
20171;DHT22;10245;51.344;6.620;2023-04-29T03:15:00;9.70;94.10
20171;DHT22;10245;51.344;6.620;2023-04-29T03:17:25;9.80;94.20
20171;DHT22;10245;51.344;6.620;2023-04-29T03:19:48;9.70;94.20
20171;DHT22;10245;51.344;6.620;2023-04-29T03:22:14;9.70;94.20
20171;DHT22;10245;51.344;6.620;2023-04-29T03:24:38;9.60;94.20
20171;DHT22;10245;51.344;6.620;2023-04-29T03:27:01;9.60;94.30
20171;DHT22;10245;51.344;6.620;2023-04-29T03:29:27;9.60;94.40
20171;DHT22;10245;51.344;6.620;2023-04-29T03:31:50;9.60;94.40
20171;DHT22;10245;51.344;6.620;2023-04-29T03:34:15;9.60;94.40
20171;DHT22;10245;51.344;6.620;2023-04-29T03:36:45;9.60;94.30
20171;DHT22;10245;51.344;6.620;2023-04-29T03:39:08;9.60;94.40
20171;DHT22;10245;51.344;6.620;2023-04-29T03:41:32;9.60;94.30
20171;DHT22;10245;51.344;6.620;2023-04-29T03:43:56;9.60;94.40
20171;DHT22;10245;51.344;6.620;2023-04-29T03:46:23;9.60;94.30
20171;DHT22;10245;51.344;6.620;2023-04-29T03:48:46;9.60;94.40
20171;DHT22;10245;51.344;6.620;2023-04-29T03:51:11;9.50;94.30
20171;DHT22;10245;51.344;6.620;2023-04-29T03:53:35;9.50;94.30
20171;DHT22;10245;51.344;6.620;2023-04-29T03:55:59;9.50;94.40
20171;DHT22;10245;51.344;6.620;2023-04-29T03:58:22;9.50;94.30
20171;DHT22;10245;51.344;6.620;2023-04-29T04:00:46;9.50;94.30
20171;DHT22;10245;51.344;6.620;2023-04-29T04:03:14;9.50;94.30
20171;DHT22;10245;51.344;6.620;2023-04-29T04:05:38;9.60;94.20
20171;DHT22;10245;51.344;6.620;2023-04-29T04:08:06;9.60;94.20
20171;DHT22;10245;51.344;6.620;2023-04-29T04:10:45;9.50;94.20
20171;DHT22;10245;51.344;6.620;2023-04-29T04:13:20;9.60;94.30
20171;DHT22;10245;51.344;6.620;2023-04-29T04:15:48;9.50;94.30
20171;DHT22;10245;51.344;6.620;2023-04-29T04:18:12;9.50;94.20
20171;DHT22;10245;51.344;6.620;2023-04-29T04:20:36;9.50;94.20
20171;DHT22;10245;51.344;6.620;2023-04-29T04:22:59;9.50;94.20
20171;DHT22;10245;51.344;6.620;2023-04-29T04:25:25;9.50;94.30
20171;DHT22;10245;51.344;6.620;2023-04-29T04:27:55;9.50;94.20
20171;DHT22;10245;51.344;6.620;2023-04-29T04:30:37;9.50;94.10
20171;DHT22;10245;51.344;6.620;2023-04-29T04:33:00;9.50;94.10
20171;DHT22;10245;51.344;6.620;2023-04-29T04:35:25;9.50;94.10
20171;DHT22;10245;51.344;6.620;2023-04-29T04:37:49;9.40;94.20
20171;DHT22;10245;51.344;6.620;2023-04-29T04:40:12;9.50;94.10
20171;DHT22;10245;51.344;6.620;2023-04-29T04:42:57;9.50;94.20
20171;DHT22;10245;51.344;6.620;2023-04-29T04:45:21;9.50;94.10
20171;DHT22;10245;51.344;6.620;2023-04-29T04:47:45;9.40;94.10
20171;DHT22;10245;51.344;6.620;2023-04-29T04:50:21;9.40;94.20
20171;DHT22;10245;51.344;6.620;2023-04-29T04:52:46;9.40;94.20
20171;DHT22;10245;51.344;6.620;2023-04-29T04:55:32;9.50;94.20
20171;DHT22;10245;51.344;6.620;2023-04-29T04:57:56;9.50;94.30
20171;DHT22;10245;51.344;6.620;2023-04-29T05:00:21;9.50;94.20
20171;DHT22;10245;51.344;6.620;2023-04-29T05:02:44;9.50;94.20
20171;DHT22;10245;51.344;6.620;2023-04-29T05:05:08;9.50;94.30
20171;DHT22;10245;51.344;6.620;2023-04-29T05:07:34;9.50;94.30
20171;DHT22;10245;51.344;6.620;2023-04-29T05:09:59;9.50;94.30
20171;DHT22;10245;51.344;6.620;2023-04-29T05:12:23;9.50;94.20
20171;DHT22;10245;51.344;6.620;2023-04-29T05:14:53;9.50;94.30
20171;DHT22;10245;51.344;6.620;2023-04-29T05:17:16;9.60;94.20
20171;DHT22;10245;51.344;6.620;2023-04-29T05:19:40;9.60;94.10
20171;DHT22;10245;51.344;6.620;2023-04-29T05:22:04;9.50;94.00
20171;DHT22;10245;51.344;6.620;2023-04-29T05:24:27;9.60;93.90
20171;DHT22;10245;51.344;6.620;2023-04-29T05:26:51;9.60;93.80
20171;DHT22;10245;51.344;6.620;2023-04-29T05:29:15;9.50;93.70
20171;DHT22;10245;51.344;6.620;2023-04-29T05:31:46;9.60;93.70
20171;DHT22;10245;51.344;6.620;2023-04-29T05:34:09;9.60;93.90
20171;DHT22;10245;51.344;6.620;2023-04-29T05:36:33;9.60;93.80
20171;DHT22;10245;51.344;6.620;2023-04-29T05:38:56;9.50;93.60
20171;DHT22;10245;51.344;6.620;2023-04-29T05:41:19;9.60;93.90
20171;DHT22;10245;51.344;6.620;2023-04-29T05:44:00;9.60;93.80
20171;DHT22;10245;51.344;6.620;2023-04-29T05:46:25;9.60;93.80
20171;DHT22;10245;51.344;6.620;2023-04-29T05:48:50;9.70;93.80
20171;DHT22;10245;51.344;6.620;2023-04-29T05:51:14;9.60;93.70
20171;DHT22;10245;51.344;6.620;2023-04-29T05:53:37;9.70;93.70
20171;DHT22;10245;51.344;6.620;2023-04-29T05:56:02;9.60;93.70
20171;DHT22;10245;51.344;6.620;2023-04-29T05:58:29;9.70;93.70
20171;DHT22;10245;51.344;6.620;2023-04-29T06:00:53;9.70;93.70
20171;DHT22;10245;51.344;6.620;2023-04-29T06:03:19;9.60;93.60
20171;DHT22;10245;51.344;6.620;2023-04-29T06:05:51;9.70;93.60
20171;DHT22;10245;51.344;6.620;2023-04-29T06:08:33;9.60;93.30
20171;DHT22;10245;51.344;6.620;2023-04-29T06:11:04;9.70;93.30
20171;DHT22;10245;51.344;6.620;2023-04-29T06:13:28;9.70;93.30
20171;DHT22;10245;51.344;6.620;2023-04-29T06:15:52;9.70;93.30
20171;DHT22;10245;51.344;6.620;2023-04-29T06:18:15;9.70;93.20
20171;DHT22;10245;51.344;6.620;2023-04-29T06:20:39;9.70;93.10
20171;DHT22;10245;51.344;6.620;2023-04-29T06:23:03;9.70;93.20
20171;DHT22;10245;51.344;6.620;2023-04-29T06:25:27;9.60;93.00
20171;DHT22;10245;51.344;6.620;2023-04-29T06:27:50;9.70;93.00
20171;DHT22;10245;51.344;6.620;2023-04-29T06:30:17;9.70;93.10
20171;DHT22;10245;51.344;6.620;2023-04-29T06:32:40;9.60;93.00
20171;DHT22;10245;51.344;6.620;2023-04-29T06:35:04;9.70;92.90
20171;DHT22;10245;51.344;6.620;2023-04-29T06:37:47;9.70;92.90
20171;DHT22;10245;51.344;6.620;2023-04-29T06:40:30;9.60;92.90
20171;DHT22;10245;51.344;6.620;2023-04-29T06:43:02;9.70;92.90
20171;DHT22;10245;51.344;6.620;2023-04-29T06:45:45;9.70;92.90
20171;DHT22;10245;51.344;6.620;2023-04-29T06:48:19;9.60;92.50
20171;DHT22;10245;51.344;6.620;2023-04-29T06:50:48;9.70;92.40
20171;DHT22;10245;51.344;6.620;2023-04-29T06:53:12;9.80;92.40
20171;DHT22;10245;51.344;6.620;2023-04-29T06:55:36;9.90;92.40
20171;DHT22;10245;51.344;6.620;2023-04-29T06:58:00;9.80;92.40
20171;DHT22;10245;51.344;6.620;2023-04-29T07:00:25;9.80;92.20
20171;DHT22;10245;51.344;6.620;2023-04-29T07:02:48;9.80;92.20
20171;DHT22;10245;51.344;6.620;2023-04-29T07:05:12;9.80;92.10
20171;DHT22;10245;51.344;6.620;2023-04-29T07:07:37;9.90;92.20
20171;DHT22;10245;51.344;6.620;2023-04-29T07:10:00;9.80;91.90
20171;DHT22;10245;51.344;6.620;2023-04-29T07:12:25;9.90;92.20
20171;DHT22;10245;51.344;6.620;2023-04-29T07:14:48;10.00;92.10
20171;DHT22;10245;51.344;6.620;2023-04-29T07:17:13;10.00;92.00
20171;DHT22;10245;51.344;6.620;2023-04-29T07:19:37;10.00;92.20
20171;DHT22;10245;51.344;6.620;2023-04-29T07:22:00;10.00;91.90
20171;DHT22;10245;51.344;6.620;2023-04-29T07:24:25;10.00;91.40
20171;DHT22;10245;51.344;6.620;2023-04-29T07:26:48;10.00;91.60
20171;DHT22;10245;51.344;6.620;2023-04-29T07:29:13;10.00;91.40
20171;DHT22;10245;51.344;6.620;2023-04-29T07:31:36;10.00;91.10
20171;DHT22;10245;51.344;6.620;2023-04-29T07:34:00;10.00;90.90
20171;DHT22;10245;51.344;6.620;2023-04-29T07:36:23;10.20;91.30
20171;DHT22;10245;51.344;6.620;2023-04-29T07:38:50;10.10;90.70
20171;DHT22;10245;51.344;6.620;2023-04-29T07:41:14;10.20;90.40
20171;DHT22;10245;51.344;6.620;2023-04-29T07:43:37;10.30;90.30
20171;DHT22;10245;51.344;6.620;2023-04-29T07:46:04;10.30;90.30
20171;DHT22;10245;51.344;6.620;2023-04-29T07:48:28;10.40;89.80
20171;DHT22;10245;51.344;6.620;2023-04-29T07:50:51;10.40;89.30
20171;DHT22;10245;51.344;6.620;2023-04-29T07:53:15;10.50;89.30
20171;DHT22;10245;51.344;6.620;2023-04-29T07:55:39;10.50;89.30
20171;DHT22;10245;51.344;6.620;2023-04-29T07:58:02;10.50;88.80
20171;DHT22;10245;51.344;6.620;2023-04-29T08:00:26;10.70;89.10
20171;DHT22;10245;51.344;6.620;2023-04-29T08:02:51;10.60;88.50
20171;DHT22;10245;51.344;6.620;2023-04-29T08:05:15;10.50;88.80
20171;DHT22;10245;51.344;6.620;2023-04-29T08:07:40;10.50;88.80
20171;DHT22;10245;51.344;6.620;2023-04-29T08:10:05;10.50;88.90
20171;DHT22;10245;51.344;6.620;2023-04-29T08:12:31;10.50;89.00
20171;DHT22;10245;51.344;6.620;2023-04-29T08:14:55;10.50;88.30
20171;DHT22;10245;51.344;6.620;2023-04-29T08:17:21;10.50;88.60
20171;DHT22;10245;51.344;6.620;2023-04-29T08:19:46;10.50;88.80
20171;DHT22;10245;51.344;6.620;2023-04-29T08:22:11;10.50;88.90
20171;DHT22;10245;51.344;6.620;2023-04-29T08:24:35;10.50;89.20
20171;DHT22;10245;51.344;6.620;2023-04-29T08:26:58;10.40;88.80
20171;DHT22;10245;51.344;6.620;2023-04-29T08:29:22;10.50;88.20
20171;DHT22;10245;51.344;6.620;2023-04-29T08:31:45;10.50;88.60
20171;DHT22;10245;51.344;6.620;2023-04-29T08:34:09;10.40;88.70
20171;DHT22;10245;51.344;6.620;2023-04-29T08:36:34;10.40;88.50
20171;DHT22;10245;51.344;6.620;2023-04-29T08:38:59;10.40;88.50
20171;DHT22;10245;51.344;6.620;2023-04-29T08:41:22;10.40;88.80
20171;DHT22;10245;51.344;6.620;2023-04-29T08:43:46;10.40;88.90
20171;DHT22;10245;51.344;6.620;2023-04-29T08:46:10;10.40;88.70
20171;DHT22;10245;51.344;6.620;2023-04-29T08:48:33;10.40;89.10
20171;DHT22;10245;51.344;6.620;2023-04-29T08:50:58;10.30;89.00
20171;DHT22;10245;51.344;6.620;2023-04-29T08:53:24;10.40;89.10
20171;DHT22;10245;51.344;6.620;2023-04-29T08:55:47;10.40;88.90
20171;DHT22;10245;51.344;6.620;2023-04-29T08:58:12;10.40;89.00
20171;DHT22;10245;51.344;6.620;2023-04-29T09:00:37;10.40;88.90
20171;DHT22;10245;51.344;6.620;2023-04-29T09:03:06;10.50;89.30
20171;DHT22;10245;51.344;6.620;2023-04-29T09:05:35;10.50;89.10
20171;DHT22;10245;51.344;6.620;2023-04-29T09:08:03;10.60;88.90
20171;DHT22;10245;51.344;6.620;2023-04-29T09:10:29;10.60;88.60
20171;DHT22;10245;51.344;6.620;2023-04-29T09:12:55;10.60;88.80
20171;DHT22;10245;51.344;6.620;2023-04-29T09:15:19;10.60;88.50
20171;DHT22;10245;51.344;6.620;2023-04-29T09:17:43;10.60;88.20
20171;DHT22;10245;51.344;6.620;2023-04-29T09:20:26;10.70;88.20
20171;DHT22;10245;51.344;6.620;2023-04-29T09:22:51;10.60;87.60
20171;DHT22;10245;51.344;6.620;2023-04-29T09:25:15;10.60;87.90
20171;DHT22;10245;51.344;6.620;2023-04-29T09:27:40;10.70;88.20
20171;DHT22;10245;51.344;6.620;2023-04-29T09:30:05;10.70;88.10
20171;DHT22;10245;51.344;6.620;2023-04-29T09:32:29;10.70;87.60
20171;DHT22;10245;51.344;6.620;2023-04-29T09:34:52;10.70;87.50
20171;DHT22;10245;51.344;6.620;2023-04-29T09:37:23;10.70;87.90
20171;DHT22;10245;51.344;6.620;2023-04-29T09:39:48;10.80;88.60
20171;DHT22;10245;51.344;6.620;2023-04-29T09:42:11;10.80;88.00
20171;DHT22;10245;51.344;6.620;2023-04-29T09:44:41;10.70;88.00
20171;DHT22;10245;51.344;6.620;2023-04-29T09:47:05;10.80;88.00
20171;DHT22;10245;51.344;6.620;2023-04-29T09:49:30;10.80;88.00
20171;DHT22;10245;51.344;6.620;2023-04-29T09:51:57;10.80;87.80
20171;DHT22;10245;51.344;6.620;2023-04-29T09:54:23;10.80;87.80
20171;DHT22;10245;51.344;6.620;2023-04-29T09:56:48;10.80;87.40
20171;DHT22;10245;51.344;6.620;2023-04-29T09:59:13;10.80;87.30
20171;DHT22;10245;51.344;6.620;2023-04-29T10:01:38;10.90;87.90
20171;DHT22;10245;51.344;6.620;2023-04-29T10:04:02;10.90;87.50
20171;DHT22;10245;51.344;6.620;2023-04-29T10:06:26;10.90;87.50
20171;DHT22;10245;51.344;6.620;2023-04-29T10:08:50;11.00;87.30
20171;DHT22;10245;51.344;6.620;2023-04-29T10:11:15;11.10;88.00
20171;DHT22;10245;51.344;6.620;2023-04-29T10:13:41;11.10;88.20
20171;DHT22;10245;51.344;6.620;2023-04-29T10:16:19;11.20;87.60
20171;DHT22;10245;51.344;6.620;2023-04-29T10:18:52;11.10;85.70
20171;DHT22;10245;51.344;6.620;2023-04-29T10:21:17;11.30;86.30
20171;DHT22;10245;51.344;6.620;2023-04-29T10:23:43;11.30;86.50
20171;DHT22;10245;51.344;6.620;2023-04-29T10:26:11;11.40;87.00
20171;DHT22;10245;51.344;6.620;2023-04-29T10:28:35;11.50;86.80
20171;DHT22;10245;51.344;6.620;2023-04-29T10:31:01;11.40;85.10
20171;DHT22;10245;51.344;6.620;2023-04-29T10:33:25;11.30;85.00
20171;DHT22;10245;51.344;6.620;2023-04-29T10:35:51;11.40;86.10
20171;DHT22;10245;51.344;6.620;2023-04-29T10:38:21;11.50;86.40
20171;DHT22;10245;51.344;6.620;2023-04-29T10:40:46;11.50;84.80
20171;DHT22;10245;51.344;6.620;2023-04-29T10:43:11;11.50;85.10
20171;DHT22;10245;51.344;6.620;2023-04-29T10:45:35;11.60;85.40
20171;DHT22;10245;51.344;6.620;2023-04-29T10:48:15;11.70;86.70
20171;DHT22;10245;51.344;6.620;2023-04-29T10:51:02;11.70;85.40
20171;DHT22;10245;51.344;6.620;2023-04-29T10:53:26;11.80;86.20
20171;DHT22;10245;51.344;6.620;2023-04-29T10:55:53;11.80;84.40
20171;DHT22;10245;51.344;6.620;2023-04-29T10:58:35;11.80;84.30
20171;DHT22;10245;51.344;6.620;2023-04-29T11:01:00;11.80;84.60
20171;DHT22;10245;51.344;6.620;2023-04-29T11:03:45;11.90;84.70
20171;DHT22;10245;51.344;6.620;2023-04-29T11:06:11;12.00;85.20
20171;DHT22;10245;51.344;6.620;2023-04-29T11:08:36;11.90;83.80
20171;DHT22;10245;51.344;6.620;2023-04-29T11:11:01;12.00;84.70
20171;DHT22;10245;51.344;6.620;2023-04-29T11:13:26;12.10;84.60
20171;DHT22;10245;51.344;6.620;2023-04-29T11:15:51;12.20;83.00
20171;DHT22;10245;51.344;6.620;2023-04-29T11:18:14;12.50;83.50
20171;DHT22;10245;51.344;6.620;2023-04-29T11:21:13;12.50;82.70
20171;DHT22;10245;51.344;6.620;2023-04-29T11:23:38;12.70;82.60
20171;DHT22;10245;51.344;6.620;2023-04-29T11:26:03;13.00;83.60
20171;DHT22;10245;51.344;6.620;2023-04-29T11:28:27;12.80;80.10
20171;DHT22;10245;51.344;6.620;2023-04-29T11:30:50;13.00;83.40
20171;DHT22;10245;51.344;6.620;2023-04-29T11:33:13;13.00;80.00
20171;DHT22;10245;51.344;6.620;2023-04-29T11:35:38;13.20;83.10
20171;DHT22;10245;51.344;6.620;2023-04-29T11:38:03;13.50;82.70
20171;DHT22;10245;51.344;6.620;2023-04-29T11:40:27;13.40;79.70
20171;DHT22;10245;51.344;6.620;2023-04-29T11:42:50;13.30;79.20
20171;DHT22;10245;51.344;6.620;2023-04-29T11:45:16;13.00;78.20
20171;DHT22;10245;51.344;6.620;2023-04-29T11:47:42;13.00;78.50
20171;DHT22;10245;51.344;6.620;2023-04-29T11:50:08;13.40;81.10
20171;DHT22;10245;51.344;6.620;2023-04-29T11:52:32;13.80;79.10
20171;DHT22;10245;51.344;6.620;2023-04-29T11:54:59;13.80;78.30
20171;DHT22;10245;51.344;6.620;2023-04-29T11:57:22;14.00;78.70
20171;DHT22;10245;51.344;6.620;2023-04-29T11:59:46;14.00;80.00
20171;DHT22;10245;51.344;6.620;2023-04-29T12:02:11;14.10;80.50
20171;DHT22;10245;51.344;6.620;2023-04-29T12:04:44;14.10;77.60
20171;DHT22;10245;51.344;6.620;2023-04-29T12:07:09;14.10;78.40
20171;DHT22;10245;51.344;6.620;2023-04-29T12:09:41;14.10;76.60
20171;DHT22;10245;51.344;6.620;2023-04-29T12:12:06;14.00;77.50
20171;DHT22;10245;51.344;6.620;2023-04-29T12:14:29;14.00;75.60
20171;DHT22;10245;51.344;6.620;2023-04-29T12:16:53;13.50;76.60
20171;DHT22;10245;51.344;6.620;2023-04-29T12:19:16;13.90;77.10
20171;DHT22;10245;51.344;6.620;2023-04-29T12:21:47;14.40;74.70
20171;DHT22;10245;51.344;6.620;2023-04-29T12:24:14;14.20;76.70
20171;DHT22;10245;51.344;6.620;2023-04-29T12:26:39;14.60;74.80
20171;DHT22;10245;51.344;6.620;2023-04-29T12:29:05;14.50;69.20
20171;DHT22;10245;51.344;6.620;2023-04-29T12:31:32;15.10;71.70
20171;DHT22;10245;51.344;6.620;2023-04-29T12:33:57;15.20;70.80
20171;DHT22;10245;51.344;6.620;2023-04-29T12:36:22;14.80;71.40
20171;DHT22;10245;51.344;6.620;2023-04-29T12:38:46;14.70;69.50
20171;DHT22;10245;51.344;6.620;2023-04-29T12:41:11;14.30;71.70
20171;DHT22;10245;51.344;6.620;2023-04-29T12:43:38;14.60;74.00
20171;DHT22;10245;51.344;6.620;2023-04-29T12:46:03;14.50;71.90
20171;DHT22;10245;51.344;6.620;2023-04-29T12:48:29;14.20;73.90
20171;DHT22;10245;51.344;6.620;2023-04-29T12:50:54;14.70;71.50
20171;DHT22;10245;51.344;6.620;2023-04-29T12:53:19;14.60;72.10
20171;DHT22;10245;51.344;6.620;2023-04-29T12:55:42;14.30;73.40
20171;DHT22;10245;51.344;6.620;2023-04-29T12:58:05;14.10;73.20
20171;DHT22;10245;51.344;6.620;2023-04-29T13:00:33;14.10;73.20
20171;DHT22;10245;51.344;6.620;2023-04-29T13:03:00;14.10;74.40
20171;DHT22;10245;51.344;6.620;2023-04-29T13:05:48;14.10;74.50
20171;DHT22;10245;51.344;6.620;2023-04-29T13:08:14;14.00;73.20
20171;DHT22;10245;51.344;6.620;2023-04-29T13:10:40;14.00;73.60
20171;DHT22;10245;51.344;6.620;2023-04-29T13:13:04;14.00;74.80
20171;DHT22;10245;51.344;6.620;2023-04-29T13:15:31;14.00;75.10
20171;DHT22;10245;51.344;6.620;2023-04-29T13:17:55;14.00;75.70
20171;DHT22;10245;51.344;6.620;2023-04-29T13:20:20;14.00;74.70
20171;DHT22;10245;51.344;6.620;2023-04-29T13:22:44;14.00;74.30
20171;DHT22;10245;51.344;6.620;2023-04-29T13:25:07;14.00;75.90
20171;DHT22;10245;51.344;6.620;2023-04-29T13:27:31;14.00;75.50
20171;DHT22;10245;51.344;6.620;2023-04-29T13:29:55;14.20;76.70
20171;DHT22;10245;51.344;6.620;2023-04-29T13:32:18;14.10;73.20
20171;DHT22;10245;51.344;6.620;2023-04-29T13:34:45;14.40;76.50
20171;DHT22;10245;51.344;6.620;2023-04-29T13:37:10;14.10;73.60
20171;DHT22;10245;51.344;6.620;2023-04-29T13:39:33;14.10;73.10
20171;DHT22;10245;51.344;6.620;2023-04-29T13:41:59;14.10;73.50
20171;DHT22;10245;51.344;6.620;2023-04-29T13:44:22;14.00;70.40
20171;DHT22;10245;51.344;6.620;2023-04-29T13:47:06;14.00;70.60
20171;DHT22;10245;51.344;6.620;2023-04-29T13:49:30;14.10;74.30
20171;DHT22;10245;51.344;6.620;2023-04-29T13:51:56;14.20;73.50
20171;DHT22;10245;51.344;6.620;2023-04-29T13:54:41;14.30;73.30
20171;DHT22;10245;51.344;6.620;2023-04-29T13:57:07;14.10;70.90
20171;DHT22;10245;51.344;6.620;2023-04-29T13:59:35;14.10;72.70
20171;DHT22;10245;51.344;6.620;2023-04-29T14:02:11;14.10;72.50
20171;DHT22;10245;51.344;6.620;2023-04-29T14:04:46;14.30;74.00
20171;DHT22;10245;51.344;6.620;2023-04-29T14:07:10;14.30;71.70
20171;DHT22;10245;51.344;6.620;2023-04-29T14:09:34;14.40;73.10
20171;DHT22;10245;51.344;6.620;2023-04-29T14:11:59;14.30;74.10
20171;DHT22;10245;51.344;6.620;2023-04-29T14:14:22;14.40;72.70
20171;DHT22;10245;51.344;6.620;2023-04-29T14:16:45;14.30;72.70
20171;DHT22;10245;51.344;6.620;2023-04-29T14:19:09;14.40;72.70
20171;DHT22;10245;51.344;6.620;2023-04-29T14:21:33;14.50;71.00
20171;DHT22;10245;51.344;6.620;2023-04-29T14:23:57;14.60;74.10
20171;DHT22;10245;51.344;6.620;2023-04-29T14:26:20;14.80;73.20
20171;DHT22;10245;51.344;6.620;2023-04-29T14:28:51;14.80;73.80
20171;DHT22;10245;51.344;6.620;2023-04-29T14:31:18;14.80;73.00
20171;DHT22;10245;51.344;6.620;2023-04-29T14:33:42;14.60;71.10
20171;DHT22;10245;51.344;6.620;2023-04-29T14:36:05;14.70;71.40
20171;DHT22;10245;51.344;6.620;2023-04-29T14:38:29;14.60;71.40
20171;DHT22;10245;51.344;6.620;2023-04-29T14:40:52;14.70;72.60
20171;DHT22;10245;51.344;6.620;2023-04-29T14:43:16;14.70;71.40
20171;DHT22;10245;51.344;6.620;2023-04-29T14:45:40;14.90;71.90
20171;DHT22;10245;51.344;6.620;2023-04-29T14:48:04;15.00;70.70
20171;DHT22;10245;51.344;6.620;2023-04-29T14:50:28;14.90;69.70
20171;DHT22;10245;51.344;6.620;2023-04-29T14:52:52;14.70;69.80
20171;DHT22;10245;51.344;6.620;2023-04-29T14:55:15;14.50;69.90
20171;DHT22;10245;51.344;6.620;2023-04-29T14:57:38;14.70;69.70
20171;DHT22;10245;51.344;6.620;2023-04-29T15:00:02;14.60;70.50
20171;DHT22;10245;51.344;6.620;2023-04-29T15:02:27;14.80;70.40
20171;DHT22;10245;51.344;6.620;2023-04-29T15:04:51;14.70;71.90
20171;DHT22;10245;51.344;6.620;2023-04-29T15:07:15;14.90;72.30
20171;DHT22;10245;51.344;6.620;2023-04-29T15:09:39;14.70;69.40
20171;DHT22;10245;51.344;6.620;2023-04-29T15:12:03;14.90;72.20
20171;DHT22;10245;51.344;6.620;2023-04-29T15:14:26;14.70;71.20
20171;DHT22;10245;51.344;6.620;2023-04-29T15:16:49;14.60;68.40
20171;DHT22;10245;51.344;6.620;2023-04-29T15:19:14;14.70;67.00
20171;DHT22;10245;51.344;6.620;2023-04-29T15:21:38;14.90;71.20
20171;DHT22;10245;51.344;6.620;2023-04-29T15:24:01;14.80;67.00
20171;DHT22;10245;51.344;6.620;2023-04-29T15:26:26;15.00;70.20
20171;DHT22;10245;51.344;6.620;2023-04-29T15:28:49;15.00;67.10